createdAt,value
2022-08-08T00:02:04.049Z,92.50
2022-08-08T00:04:35.459Z,92.80
2022-08-08T00:07:29.441Z,92.60
2022-08-08T00:10:03.635Z,92.00
2022-08-08T00:12:39.730Z,92.30
2022-08-08T00:15:15.306Z,92.30
2022-08-08T00:18:03.482Z,92.20
2022-08-08T00:20:55.948Z,99.90
2022-08-08T00:23:51.140Z,92.50
2022-08-08T00:26:38.700Z,99.90
2022-08-08T00:29:12.103Z,93.00
2022-08-08T00:32:21.320Z,93.20
2022-08-08T00:35:18.682Z,96.90
2022-08-08T00:38:16.789Z,92.10
2022-08-08T00:41:14.873Z,92.20
2022-08-08T00:44:09.545Z,92.40
2022-08-08T00:47:14.194Z,98.70
2022-08-08T00:50:09.308Z,92.70
2022-08-08T00:52:40.444Z,95.90
2022-08-08T01:00:37.909Z,99.90
2022-08-08T01:04:01.853Z,94.30
2022-08-08T01:07:05.737Z,94.20
2022-08-08T01:10:13.899Z,92.70
2022-08-08T01:15:47.304Z,97.80
2022-08-08T01:22:07.230Z,93.00
2022-08-08T01:24:55.846Z,94.70
2022-08-08T01:27:46.159Z,99.90
2022-08-08T01:30:43.170Z,99.90
2022-08-08T01:33:27.630Z,93.30
2022-08-08T01:36:31.589Z,93.80
2022-08-08T01:42:11.808Z,94.10
2022-08-08T01:48:14.950Z,94.50
2022-08-08T01:50:39.824Z,99.90
2022-08-08T01:55:16.433Z,95.30
2022-08-08T01:57:08.369Z,95.30
2022-08-08T02:03:50.484Z,95.40
2022-08-08T02:09:16.117Z,95.20
2022-08-08T02:11:59.164Z,95.40
2022-08-08T02:17:24.776Z,99.90
2022-08-08T02:20:15.835Z,95.40
2022-08-08T02:25:48.474Z,95.60
2022-08-08T02:28:35.275Z,95.20
2022-08-08T02:31:58.280Z,99.90
2022-08-08T02:34:39.322Z,95.60
2022-08-08T02:38:05.638Z,99.90
2022-08-08T02:41:02.977Z,96.40
2022-08-08T02:47:03.491Z,96.60
2022-08-08T02:49:55.806Z,97.10
2022-08-08T02:52:39.986Z,95.30
2022-08-08T02:55:36.462Z,95.40
2022-08-08T02:58:32.120Z,99.90
2022-08-08T03:01:50.295Z,96.70
2022-08-08T03:05:05.416Z,95.10
2022-08-08T03:08:05.359Z,95.10
2022-08-08T03:10:56.884Z,99.90
2022-08-08T03:19:51.119Z,95.30
2022-08-08T03:22:38.446Z,99.90
2022-08-08T03:25:17.914Z,96.90
2022-08-08T03:27:59.375Z,96.60
2022-08-08T03:42:12.744Z,97.70
2022-08-08T03:49:58.887Z,97.90
2022-08-08T03:55:01.668Z,97.20
2022-08-08T04:00:25.834Z,99.90
2022-08-08T04:03:03.988Z,97.90
2022-08-08T04:05:37.312Z,97.90
2022-08-08T04:08:33.241Z,97.60
2022-08-08T04:11:11.397Z,97.70
2022-08-08T04:48:01.924Z,98.30
2022-08-08T05:14:08.832Z,97.80
2022-08-08T05:22:18.769Z,99.90
2022-08-08T05:34:59.528Z,98.70
2022-08-08T05:37:52.160Z,98.60
2022-08-08T05:43:39.492Z,99.10
2022-08-08T05:54:25.242Z,99.30
2022-08-08T05:56:42.307Z,99.30
2022-08-08T06:00:00.994Z,99.50
2022-08-08T06:02:43.724Z,99.40
2022-08-08T06:05:33.314Z,98.90
2022-08-08T06:08:09.652Z,99.90
2022-08-08T06:10:49.720Z,99.00
2022-08-08T06:15:55.462Z,98.80
2022-08-08T06:18:38.096Z,98.70
2022-08-08T06:26:44.919Z,99.90
2022-08-08T06:30:00.452Z,98.70
2022-08-08T06:32:31.311Z,98.60
2022-08-08T06:35:30.638Z,98.50
2022-08-08T06:38:03.013Z,98.50
2022-08-08T06:40:36.898Z,97.90
2022-08-08T06:43:11.207Z,96.90
2022-08-08T06:53:20.301Z,97.50
2022-08-08T07:01:24.323Z,97.90
2022-08-08T07:04:39.002Z,97.50
2022-08-08T07:06:59.763Z,97.30
2022-08-08T07:09:45.161Z,97.70
2022-08-08T07:12:40.328Z,97.60
2022-08-08T07:15:31.763Z,99.90
2022-08-08T07:18:35.879Z,97.30
2022-08-08T07:21:18.710Z,97.30
2022-08-08T07:39:29.498Z,96.60
2022-08-08T07:42:05.516Z,95.40
2022-08-08T07:44:40.374Z,94.80
2022-08-08T07:52:13.054Z,95.20
2022-08-08T07:57:29.773Z,99.20
2022-08-08T08:00:16.183Z,96.30
2022-08-08T08:03:12.343Z,95.30
2022-08-08T08:05:45.271Z,95.00
2022-08-08T08:08:26.145Z,94.00
2022-08-08T08:10:59.549Z,93.80
2022-08-08T08:13:42.826Z,99.90
2022-08-08T08:16:25.311Z,95.00
2022-08-08T08:19:16.035Z,99.90
2022-08-08T08:21:57.491Z,94.80
2022-08-08T08:42:37.412Z,95.00
2022-08-08T08:50:32.538Z,94.90
2022-08-08T08:53:28.077Z,95.00
2022-08-08T08:56:06.886Z,99.90
2022-08-08T08:58:46.900Z,94.70
2022-08-08T09:01:52.898Z,94.70
2022-08-08T09:04:37.952Z,94.70
2022-08-08T09:07:22.421Z,94.20
2022-08-08T09:09:55.276Z,93.90
2022-08-08T09:14:59.276Z,93.10
2022-08-08T09:17:41.812Z,93.20
2022-08-08T09:21:56.925Z,92.00
2022-08-08T09:26:00.843Z,99.90
2022-08-08T09:28:38.622Z,92.10
2022-08-08T09:31:26.974Z,90.40
2022-08-08T09:37:34.109Z,88.40
2022-08-08T09:40:12.001Z,89.80
2022-08-08T09:42:56.606Z,87.40
2022-08-08T09:50:54.978Z,99.70
2022-08-08T09:53:53.290Z,85.00
2022-08-08T09:59:00.752Z,84.30
2022-08-08T10:02:00.023Z,83.80
2022-08-08T10:04:41.723Z,81.00
2022-08-08T10:07:15.861Z,79.50
2022-08-08T10:10:00.912Z,79.40
2022-08-08T10:12:38.624Z,80.30
2022-08-08T10:15:24.124Z,79.80
2022-08-08T10:18:10.423Z,80.00
2022-08-08T10:20:57.612Z,81.30
2022-08-08T10:23:55.526Z,80.30
2022-08-08T10:26:57.048Z,76.20
2022-08-08T10:29:57.197Z,79.80
2022-08-08T10:32:39.073Z,80.00
2022-08-08T10:35:20.591Z,80.10
2022-08-08T10:38:05.245Z,78.20
2022-08-08T10:43:03.843Z,78.90
2022-08-08T10:45:55.166Z,78.00
2022-08-08T10:48:57.267Z,78.50
2022-08-08T10:51:31.626Z,80.40
2022-08-08T10:54:24.997Z,79.10
2022-08-08T10:56:58.524Z,88.70
2022-08-08T11:02:07.349Z,78.50
2022-08-08T11:04:53.740Z,80.40
2022-08-08T11:08:30.719Z,77.00
2022-08-08T11:13:28.069Z,76.90
2022-08-08T11:23:31.342Z,74.80
2022-08-08T11:26:03.942Z,74.80
2022-08-08T11:28:38.799Z,76.50
2022-08-08T11:33:52.585Z,75.00
2022-08-08T11:41:28.024Z,73.40
2022-08-08T11:46:31.400Z,71.60
2022-08-08T11:49:04.754Z,92.10
2022-08-08T11:51:39.616Z,71.40
2022-08-08T11:57:23.928Z,68.70
2022-08-08T12:00:05.551Z,67.50
2022-08-08T12:05:16.400Z,73.30
2022-08-08T12:07:52.017Z,68.40
2022-08-08T12:10:25.507Z,70.20
2022-08-08T12:13:09.801Z,92.90
2022-08-08T12:15:42.594Z,92.90
2022-08-08T12:20:59.472Z,82.00
2022-08-08T12:23:43.503Z,69.60
2022-08-08T12:31:39.354Z,71.40
2022-08-08T12:34:36.130Z,69.80
2022-08-08T12:37:11.223Z,68.20
2022-08-08T12:45:53.508Z,85.30
2022-08-08T12:48:10.144Z,71.70
2022-08-08T12:50:57.371Z,67.90
2022-08-08T12:53:36.464Z,66.30
2022-08-08T12:56:19.636Z,70.30
2022-08-08T12:58:54.301Z,91.90
2022-08-08T13:01:36.348Z,69.50
2022-08-08T13:04:35.419Z,68.60
2022-08-08T13:07:16.559Z,91.50
2022-08-08T13:10:04.038Z,66.70
2022-08-08T13:12:36.119Z,92.00
2022-08-08T13:15:09.714Z,67.70
2022-08-08T13:18:08.618Z,90.60
2022-08-08T13:23:29.883Z,67.40
2022-08-08T13:25:43.955Z,70.10
2022-08-08T13:33:18.391Z,91.80
2022-08-08T13:38:18.519Z,90.00
2022-08-08T13:43:16.053Z,68.00
2022-08-08T13:48:25.320Z,69.80
2022-08-08T13:53:41.273Z,81.50
2022-08-08T13:56:44.903Z,61.20
2022-08-08T13:59:50.502Z,61.80
2022-08-08T14:05:19.974Z,86.40
2022-08-08T14:07:53.090Z,60.00
2022-08-08T14:10:36.725Z,77.80
2022-08-08T14:13:31.029Z,90.40
2022-08-08T14:16:07.877Z,85.70
2022-08-08T14:18:58.023Z,65.60
2022-08-08T14:21:49.069Z,66.00
2022-08-08T14:24:34.081Z,90.50
2022-08-08T14:29:39.593Z,77.50
2022-08-08T14:32:11.434Z,86.20
2022-08-08T14:34:45.307Z,90.10
2022-08-08T14:37:17.518Z,65.30
2022-08-08T14:40:05.473Z,64.90
2022-08-08T14:42:55.303Z,90.30
2022-08-08T14:45:46.803Z,90.20
2022-08-08T14:48:17.866Z,76.50
2022-08-08T14:51:06.478Z,68.50
2022-08-08T14:53:54.697Z,68.70
2022-08-08T14:56:25.085Z,77.90
2022-08-08T14:58:54.285Z,87.80
2022-08-08T15:01:37.288Z,73.10
2022-08-08T15:11:43.319Z,81.30
2022-08-08T15:14:15.079Z,89.40
2022-08-08T15:16:44.457Z,67.00
2022-08-08T15:19:11.911Z,81.60
2022-08-08T15:21:42.755Z,91.80
2022-08-08T15:24:14.038Z,92.50
2022-08-08T15:26:52.331Z,77.60
2022-08-08T15:29:22.471Z,89.80
2022-08-08T15:37:07.000Z,91.10
2022-08-08T15:39:38.585Z,71.20
2022-08-08T15:42:17.714Z,93.40
2022-08-08T15:52:21.493Z,87.30
2022-08-08T15:54:51.816Z,86.20
2022-08-08T15:57:20.706Z,87.80
2022-08-08T16:00:06.746Z,91.20
2022-08-08T16:02:44.100Z,91.60
2022-08-08T16:07:52.731Z,92.40
2022-08-08T16:13:30.634Z,93.40
2022-08-08T16:18:32.349Z,93.40
2022-08-08T16:21:01.178Z,93.30
2022-08-08T16:23:31.913Z,93.70
2022-08-08T16:26:04.356Z,73.60
2022-08-08T16:28:35.488Z,72.80
2022-08-08T16:31:07.485Z,93.70
2022-08-08T16:36:16.136Z,87.80
2022-08-08T16:38:57.142Z,72.60
2022-08-08T16:46:36.229Z,70.20
2022-08-08T16:49:07.973Z,91.60
2022-08-08T16:55:03.606Z,89.90
2022-08-08T16:55:03.608Z,62.60
2022-08-08T16:57:27.861Z,63.00
2022-08-08T17:02:38.636Z,69.70
2022-08-08T17:05:08.639Z,86.80
2022-08-08T17:10:17.017Z,62.40
2022-08-08T17:12:53.319Z,87.70
2022-08-08T17:15:23.184Z,88.50
2022-08-08T17:20:39.634Z,66.60
2022-08-08T17:23:17.906Z,71.00
2022-08-08T17:25:55.758Z,90.70
2022-08-08T17:31:43.480Z,77.80
2022-08-08T17:34:37.498Z,69.70
2022-08-08T17:40:04.904Z,76.80
2022-08-08T17:42:19.365Z,61.70
2022-08-08T17:44:49.668Z,62.10
2022-08-08T17:47:27.865Z,87.30
2022-08-08T17:50:01.519Z,88.20
2022-08-08T17:52:35.306Z,66.70
2022-08-08T18:00:21.547Z,85.00
2022-08-08T18:03:07.421Z,84.70
2022-08-08T18:05:48.889Z,59.80
2022-08-08T18:11:15.378Z,60.00
2022-08-08T18:13:46.925Z,61.30
2022-08-08T18:18:53.844Z,88.00
2022-08-08T18:21:34.796Z,62.90
2022-08-08T18:26:54.269Z,88.80
2022-08-08T18:29:33.285Z,89.80
2022-08-08T18:32:03.642Z,63.00
2022-08-08T18:37:04.801Z,70.80
2022-08-08T18:39:36.698Z,63.40
2022-08-08T18:42:06.702Z,74.00
2022-08-08T18:44:41.898Z,88.80
2022-08-08T18:47:08.943Z,76.20
2022-08-08T18:55:00.233Z,64.40
2022-08-08T19:00:19.494Z,63.80
2022-08-08T19:02:57.017Z,63.10
2022-08-08T19:05:34.514Z,88.40
2022-08-08T19:08:24.537Z,64.50
2022-08-08T19:10:55.508Z,88.70
2022-08-08T19:18:33.617Z,88.60
2022-08-08T19:23:57.688Z,88.10
2022-08-08T19:28:59.406Z,87.70
2022-08-08T19:31:31.761Z,87.50
2022-08-08T19:34:36.660Z,62.40
2022-08-08T19:36:58.797Z,62.50
2022-08-08T19:39:30.717Z,63.20
2022-08-08T19:42:06.765Z,86.70
2022-08-08T19:44:42.767Z,88.20
2022-08-08T19:47:12.372Z,88.80
2022-08-08T19:55:12.517Z,63.90
2022-08-08T19:57:41.222Z,73.60
2022-08-08T20:00:29.978Z,64.40
2022-08-08T20:03:15.202Z,88.90
2022-08-08T20:16:19.700Z,68.30
2022-08-08T20:21:25.469Z,91.00
2022-08-08T20:23:57.945Z,67.50
2022-08-08T20:26:27.622Z,67.10
2022-08-08T20:34:30.139Z,68.60
2022-08-08T20:37:03.320Z,68.90
2022-08-08T20:39:39.599Z,80.70
2022-08-08T20:42:29.177Z,70.40
2022-08-08T20:44:58.384Z,70.30
2022-08-08T20:49:54.123Z,92.60
2022-08-08T20:52:24.978Z,79.80
2022-08-08T20:54:52.075Z,92.90
2022-08-08T20:57:21.178Z,72.50
2022-08-08T21:02:19.849Z,73.50
2022-08-08T21:05:00.812Z,71.70
2022-08-08T21:10:16.711Z,93.90
2022-08-08T21:15:16.493Z,74.10
2022-08-08T21:20:34.198Z,93.90
2022-08-08T21:23:02.747Z,94.10
2022-08-08T21:25:36.226Z,94.80
2022-08-08T21:28:09.645Z,76.10
2022-08-08T21:43:32.898Z,79.10
2022-08-08T21:48:06.188Z,80.20
2022-08-08T21:54:54.172Z,82.00
2022-08-08T22:04:56.038Z,94.60
2022-08-08T22:10:18.172Z,85.00
2022-08-08T23:07:51.597Z,90.90
2022-08-08T23:16:41.906Z,90.50
2022-08-08T23:20:40.822Z,90.90
2022-08-08T23:52:07.297Z,90.60
2022-08-08T23:54:53.183Z,99.90
